ADDS METAR Data INFO
IDs: Format: Raw Decoded Include TAF

Data at: 0949 UTC 25 Jun 2018

KDLH 250855Z 10010KT 10SM CLR 11/02 A3014 RMK AO2 SLP213 T01060017 55008
KDLH 250755Z 09012KT 10SM CLR 11/02 A3013 RMK AO2 SLP209 T01110017
KDLH 250655Z 09012KT 10SM CLR 11/01 A3015 RMK AO2 SLP215 T01110011
KDLH 250555Z 09010KT 10SM CLR 10/02 A3016 RMK AO2 SLP221 T01000017 10122 20100 401440083 50003
KDLH 250455Z 09008KT 10SM CLR 10/02 A3016 RMK AO2 SLP222 T01000022
KDLH 250355Z 08011KT 10SM CLR 10/02 A3015 RMK AO2 SLP219 T01000022
KDLH 250255Z 08010KT 10SM FEW120 10/03 A3015 RMK AO2 SLP219 T01000033 53009
KDLH 250155Z 08013KT 10SM FEW120 11/01 A3013 RMK AO2 SLP212 T01060006
KDLH 250055Z 08012KT 10SM FEW120 12/01 A3014 RMK AO2 SLP214 T01220006
KDLH 242355Z 08014G19KT 10SM FEW120 12/01 A3012 RMK AO2 SLP209 T01220011 10144 20122 53002
KDLH 242255Z 08016G24KT 10SM CLR 12/04 A3011 RMK AO2 PK WND 07026/2220 SLP203 T01220039
KDLH 242155Z 10013G23KT 10SM CLR 13/06 A3012 RMK AO2 SLP208 T01280056
KDLH 242055Z 09013G20KT 10SM CLR 13/04 A3012 RMK AO2 PK WND 08027/2030 SLP206 T01280044 50002
KDLH 241955Z 09012KT 10SM CLR 14/05 A3012 RMK AO2 PK WND 07029/1940 SLP207 T01390050
KDLH 241855Z 10017G24KT 10SM CLR 14/05 A3013 RMK AO2 PK WND 09027/1756 SLP208 T01390050
KDLH 241755Z 08019G30KT 10SM FEW110 13/06 A3011 RMK AO2 PK WND 07030/1749 SLP202 T01280061 10139 20089 53014
KDLH 241655Z 07018G24KT 10SM FEW014 13/07 A3008 RMK AO2 PK WND 09026/1632 SLP191 T01280072
KDLH 241653Z 08018G24KT 10SM SCT014 13/07 A3008 RMK AO2 PK WND 09026/1632
KDLH 241555Z 08018G26KT 10SM OVC012 11/07 A3007 RMK AO2 PK WND 09027/1541 SLP188 T01110072
KDLH 241455Z 07017G28KT 10SM OVC011 11/07 A3006 RMK AO2 PK WND 10029/1439 SLP185 T01060072 53021
KDLH 241355Z 08019G27KT 10SM OVC010 11/07 A3003 RMK AO2 PK WND 09027/1354 SLP174 T01060067
KDLH 241328Z 07015G24KT 10SM OVC010 11/07 A3003 RMK AO2 PK WND 08027/1317 T01060072
KDLH 241255Z 08016G25KT 10SM OVC008 09/07 A3002 RMK AO2 PK WND 10026/1232 SLP171 T00940067
KDLH 241155Z 09013G22KT 10SM OVC007 09/07 A2999 RMK AO2 SLP162 T00890067 10128 20083 51019
KDLH 241055Z 09015G21KT 10SM BKN007 09/07 A2998 RMK AO2 PK WND 09026/1010 SLP156 T00890067
KDLH 240955Z 09015G25KT 10SM BKN007 09/07 A2996 RMK AO2 PK WND 09026/0943 SLP146 T00890067
KDLH 240925Z 09014G21KT 10SM BKN007 09/07 A2995 RMK AO2 T00890067
KDLH 240907Z 09015G23KT 10SM FEW008 09/07 A2994 RMK AO2 T00890067
KDLH 240855Z 09013G22KT 10SM CLR 09/07 A2994 RMK AO2 SLP138 T00940067 53014
KDLH 240755Z 09011KT 10SM CLR 11/08 A2992 RMK AO2 SLP132 T01060078
KDLH 240655Z 09012G17KT 10SM CLR 12/08 A2990 RMK AO2 SLP126 T01170078
KDLH 240555Z 08009KT 10SM CLR 12/07 A2989 RMK AO2 SLP122 T01220067 10178 20122 402720111 51014
KDLH 240455Z 08007KT 10SM CLR 13/08 A2988 RMK AO2 SLP117 T01330078
KDLH 240355Z 08007KT 10SM FEW120 13/08 A2987 RMK AO2 SLP112 T01330078
KDLH 240255Z 10008KT 10SM FEW120 14/07 A2985 RMK AO2 SLP107 T01440067 53022
KDLH 240155Z 10008KT 10SM FEW060 FEW120 15/08 A2982 RMK AO2 SLP100 T01500078
KDLH 240055Z 11010KT 10SM FEW060 SCT120 17/07 A2980 RMK AO2 SLP092 T01720072
KDLH 232355Z 12010KT 10SM FEW060 FEW120 18/08 A2978 RMK AO2 SLP087 T01780083 10272 20178 53006
KDLH 232255Z 13011KT 10SM FEW060 19/09 A2978 RMK AO2 SLP085 T01890094
KDLH 232155Z 13006KT 10SM FEW060 22/13 A2977 RMK AO2 SLP080 T02220133